createdAt,value
2019-04-10T00:00:41.664Z,99833.00
2019-04-10T00:02:48.498Z,99831.52
2019-04-10T00:04:55.756Z,99842.56
2019-04-10T00:07:12.669Z,99838.57
2019-04-10T00:09:11.430Z,99841.07
2019-04-10T00:11:18.622Z,99840.48
2019-04-10T00:13:26.802Z,99837.62
2019-04-10T00:15:34.667Z,99834.84
2019-04-10T00:17:41.546Z,99834.73
2019-04-10T00:19:48.299Z,99838.45
2019-04-10T00:21:55.661Z,99843.19
2019-04-10T00:24:03.807Z,99841.19
2019-04-10T00:26:10.725Z,99846.31
2019-04-10T00:28:17.642Z,99844.00
2019-04-10T00:30:25.190Z,99849.58
2019-04-10T00:32:32.215Z,99846.85
2019-04-10T00:34:39.998Z,99854.73
2019-04-10T00:36:46.944Z,99847.27
2019-04-10T00:38:53.936Z,99846.70
2019-04-10T00:41:00.734Z,99852.16
2019-04-10T00:43:08.694Z,99851.50
2019-04-10T00:45:15.868Z,99849.16
2019-04-10T00:47:23.511Z,99846.85
2019-04-10T00:49:31.473Z,99851.59
2019-04-10T00:51:39.432Z,99848.80
2019-04-10T00:53:46.306Z,99854.43
2019-04-10T00:55:54.343Z,99852.56
2019-04-10T00:58:01.619Z,99854.51
2019-04-10T01:00:09.603Z,99860.48
2019-04-10T01:02:17.221Z,99859.09
2019-04-10T01:04:24.533Z,99862.40
2019-04-10T01:06:32.332Z,99860.56
2019-04-10T01:08:39.100Z,99856.91
2019-04-10T01:10:46.290Z,99855.48
2019-04-10T01:12:54.449Z,99862.47
2019-04-10T01:15:02.454Z,99859.33
2019-04-10T01:17:11.699Z,99859.33
2019-04-10T01:19:19.626Z,99853.64
2019-04-10T01:21:28.269Z,99859.74
2019-04-10T01:23:37.887Z,99853.23
2019-04-10T01:25:44.821Z,99850.69
2019-04-10T01:27:52.203Z,99850.20
2019-04-10T01:30:00.060Z,99845.41
2019-04-10T01:32:07.837Z,99850.91
2019-04-10T01:34:14.968Z,99852.21
2019-04-10T01:36:22.746Z,99851.73
2019-04-10T01:38:29.786Z,99853.45
2019-04-10T01:40:37.302Z,99854.22
2019-04-10T01:42:44.490Z,99842.88
2019-04-10T01:44:53.131Z,99845.83
2019-04-10T01:47:00.173Z,99846.18
2019-04-10T01:49:07.188Z,99853.17
2019-04-10T01:51:15.344Z,99847.06
2019-04-10T01:53:22.091Z,99847.89
2019-04-10T01:55:31.232Z,99849.95
2019-04-10T01:57:37.252Z,99846.88
2019-04-10T01:59:43.982Z,99846.88
2019-04-10T02:01:52.610Z,99843.32
2019-04-10T02:04:00.370Z,99848.25
2019-04-10T02:06:07.335Z,99846.41
2019-04-10T02:08:16.060Z,99843.92
2019-04-10T02:10:23.768Z,99844.75
2019-04-10T02:12:30.624Z,99840.37
2019-04-10T02:14:38.400Z,99845.45
2019-04-10T02:16:45.405Z,99838.02
2019-04-10T02:18:53.810Z,99836.75
2019-04-10T02:21:01.205Z,99844.62
2019-04-10T02:23:07.993Z,99838.50
2019-04-10T02:25:15.799Z,99836.81
2019-04-10T02:27:24.546Z,99838.59
2019-04-10T02:29:31.512Z,99844.14
2019-04-10T02:31:39.046Z,99846.34
2019-04-10T02:33:47.389Z,99851.67
2019-04-10T02:35:57.137Z,99853.39
2019-04-10T02:38:22.294Z,99851.61
2019-04-10T02:40:13.092Z,99859.97
2019-04-10T02:42:20.861Z,99856.95
2019-04-10T02:44:30.047Z,99869.08
2019-04-10T02:46:37.032Z,99860.50
2019-04-10T02:48:44.184Z,99863.23
2019-04-10T02:50:51.338Z,99859.81
2019-04-10T02:53:01.443Z,99862.83
2019-04-10T02:55:09.920Z,99867.62
2019-04-10T02:57:19.324Z,99864.89
2019-04-10T02:59:26.996Z,99869.56
2019-04-10T03:01:35.495Z,99866.41
2019-04-10T03:03:42.551Z,99868.89
2019-04-10T03:05:50.834Z,99872.28
2019-04-10T03:07:58.458Z,99878.42
2019-04-10T03:10:17.511Z,99870.44
2019-04-10T03:12:17.131Z,99875.72
2019-04-10T03:14:24.359Z,99873.11
2019-04-10T03:16:31.523Z,99877.08
2019-04-10T03:18:39.119Z,99876.70
2019-04-10T03:20:46.812Z,99873.20
2019-04-10T03:22:53.611Z,99880.98
2019-04-10T03:25:00.460Z,99874.89
2019-04-10T03:27:08.634Z,99879.08
2019-04-10T03:29:17.816Z,99883.33
2019-04-10T03:31:25.412Z,99882.31
2019-04-10T03:33:41.844Z,99877.42
2019-04-10T03:35:48.076Z,99876.94
2019-04-10T03:37:55.357Z,99880.17
2019-04-10T03:40:02.952Z,99884.28
2019-04-10T03:42:09.759Z,99882.48
2019-04-10T03:44:18.664Z,99884.33
2019-04-10T03:46:25.627Z,99880.81
2019-04-10T03:48:33.422Z,99880.13
2019-04-10T03:50:40.341Z,99887.56
2019-04-10T03:52:47.120Z,99892.86
2019-04-10T03:54:54.537Z,99890.32
2019-04-10T03:57:02.508Z,99895.34
2019-04-10T03:59:09.493Z,99897.26
2019-04-10T04:01:16.741Z,99902.69
2019-04-10T04:03:24.597Z,99902.07
2019-04-10T04:05:31.587Z,99903.63
2019-04-10T04:07:38.888Z,99906.58
2019-04-10T04:09:46.035Z,99912.52
2019-04-10T04:11:53.700Z,99911.70
2019-04-10T04:14:02.143Z,99919.23
2019-04-10T04:16:09.019Z,99919.16
2019-04-10T04:18:17.716Z,99916.42
2019-04-10T04:20:24.406Z,99922.92
2019-04-10T04:22:33.113Z,99923.77
2019-04-10T04:24:40.518Z,99927.30
2019-04-10T04:26:48.721Z,99932.64
2019-04-10T04:28:55.718Z,99929.70
2019-04-10T04:31:03.109Z,99928.41
2019-04-10T04:33:11.067Z,99930.86
2019-04-10T04:35:19.650Z,99930.27
2019-04-10T04:37:28.045Z,99934.72
2019-04-10T04:39:35.082Z,99939.91
2019-04-10T04:41:44.315Z,99935.80
2019-04-10T04:43:51.731Z,99934.75
2019-04-10T04:45:59.168Z,99933.43
2019-04-10T04:48:07.786Z,99936.80
2019-04-10T04:50:15.646Z,99939.16
2019-04-10T04:52:23.984Z,99942.93
2019-04-10T04:54:31.056Z,99940.91
2019-04-10T04:56:42.047Z,99937.80
2019-04-10T04:58:49.714Z,99943.51
2019-04-10T05:00:58.551Z,99936.94
2019-04-10T05:03:05.143Z,99942.63
2019-04-10T05:05:12.027Z,99928.53
2019-04-10T05:07:20.502Z,99941.24
2019-04-10T05:09:34.270Z,99930.41
2019-04-10T05:11:36.422Z,99930.47
2019-04-10T05:13:44.128Z,99931.48
2019-04-10T05:15:53.293Z,99931.69
2019-04-10T05:18:00.473Z,99928.88
2019-04-10T05:20:09.155Z,99930.92
2019-04-10T05:22:16.953Z,99926.41
2019-04-10T05:24:24.093Z,99929.91
2019-04-10T05:26:32.358Z,99934.90
2019-04-10T05:28:40.293Z,99928.32
2019-04-10T05:30:47.464Z,99923.61
2019-04-10T05:32:54.418Z,99924.98
2019-04-10T05:35:05.833Z,99929.31
2019-04-10T05:37:11.425Z,99928.47
2019-04-10T05:39:19.790Z,99929.52
2019-04-10T05:41:26.558Z,99923.72
2019-04-10T05:43:34.178Z,99926.80
2019-04-10T05:45:42.445Z,99924.48
2019-04-10T05:47:50.730Z,99931.78
2019-04-10T05:49:57.748Z,99926.10
2019-04-10T05:52:04.698Z,99925.80
2019-04-10T05:54:11.386Z,99925.46
2019-04-10T05:56:19.571Z,99928.73
2019-04-10T05:58:29.341Z,99928.91
2019-04-10T06:00:36.715Z,99932.71
2019-04-10T06:02:43.868Z,99933.64
2019-04-10T06:04:51.762Z,99925.40
2019-04-10T06:06:58.877Z,99938.33
2019-04-10T06:09:08.875Z,99936.20
2019-04-10T06:11:15.645Z,99938.38
2019-04-10T06:13:22.831Z,99944.30
2019-04-10T06:15:30.689Z,99943.61
2019-04-10T06:17:38.618Z,99940.81
2019-04-10T06:19:46.768Z,99946.03
2019-04-10T06:21:54.457Z,99930.55
2019-04-10T06:24:01.220Z,99933.55
2019-04-10T06:26:07.965Z,99935.41
2019-04-10T06:28:14.948Z,99935.97
2019-04-10T06:30:21.808Z,99940.52
2019-04-10T06:32:29.666Z,99935.83
2019-04-10T06:34:36.475Z,99937.75
2019-04-10T06:36:43.797Z,99941.33
2019-04-10T06:38:50.881Z,99928.92
2019-04-10T06:40:58.487Z,99943.46
2019-04-10T06:43:06.488Z,99937.69
2019-04-10T06:45:13.500Z,99942.00
2019-04-10T06:47:20.361Z,99937.72
2019-04-10T06:49:27.103Z,99935.59
2019-04-10T06:51:33.779Z,99937.19
2019-04-10T06:53:41.399Z,99938.59
2019-04-10T06:55:48.879Z,99936.55
2019-04-10T06:57:57.662Z,99944.00
2019-04-10T07:00:13.785Z,99937.80
2019-04-10T07:02:25.611Z,99934.89
2019-04-10T07:04:28.382Z,99938.38
2019-04-10T07:06:47.179Z,99942.53
2019-04-10T07:08:48.658Z,99940.87
2019-04-10T07:10:57.884Z,99952.99
2019-04-10T07:13:05.169Z,99950.56
2019-04-10T07:15:10.667Z,99949.64
2019-04-10T07:17:17.992Z,99953.45
2019-04-10T07:19:24.711Z,99950.03
2019-04-10T07:21:34.971Z,99957.41
2019-04-10T07:23:40.752Z,99956.73
2019-04-10T07:25:48.425Z,99951.09
2019-04-10T07:27:56.169Z,99948.27
2019-04-10T07:30:03.593Z,99947.34
2019-04-10T07:32:11.891Z,99946.67
2019-04-10T07:34:23.869Z,99955.48
2019-04-10T07:36:27.433Z,99949.19
2019-04-10T07:38:35.035Z,99949.15
2019-04-10T07:40:42.901Z,99956.81
2019-04-10T07:42:50.430Z,99952.67
2019-04-10T07:44:57.139Z,99972.00
2019-04-10T07:47:09.382Z,99973.61
2019-04-10T07:49:18.302Z,99982.86
2019-04-10T07:51:25.520Z,99991.00
2019-04-10T07:53:33.180Z,99993.84
2019-04-10T07:55:39.966Z,99992.17
2019-04-10T07:57:48.572Z,99996.40
2019-04-10T07:59:55.118Z,99980.41
2019-04-10T08:02:02.514Z,99992.59
2019-04-10T08:04:10.405Z,99988.73
2019-04-10T08:06:17.922Z,99980.77
2019-04-10T08:08:25.676Z,99986.13
2019-04-10T08:10:32.750Z,99987.73
2019-04-10T08:12:47.591Z,99993.77
2019-04-10T08:14:48.531Z,99992.02
2019-04-10T08:16:55.372Z,99974.00
2019-04-10T08:19:02.122Z,99976.72
2019-04-10T08:21:08.797Z,99975.98
2019-04-10T08:23:15.603Z,99991.28
2019-04-10T08:25:22.826Z,99979.16
2019-04-10T08:27:29.951Z,99972.51
2019-04-10T08:29:36.856Z,99962.70
2019-04-10T08:31:44.253Z,99967.39
2019-04-10T08:33:52.799Z,99966.96
2019-04-10T08:35:59.594Z,99980.13
2019-04-10T08:38:07.575Z,99975.08
2019-04-10T08:40:17.198Z,99988.63
2019-04-10T08:42:24.448Z,99986.55
2019-04-10T08:44:32.113Z,99999.99
2019-04-10T08:46:40.248Z,100000.26
2019-04-10T08:48:48.113Z,100001.84
2019-04-10T08:50:54.833Z,100000.64
2019-04-10T08:53:02.122Z,100003.59
2019-04-10T08:55:10.150Z,100000.13
2019-04-10T08:57:17.229Z,99996.39
2019-04-10T08:59:23.895Z,99997.41
2019-04-10T09:01:31.470Z,99995.44
2019-04-10T09:03:39.233Z,99996.50
2019-04-10T09:05:46.960Z,99996.17
2019-04-10T09:07:54.713Z,99991.13
2019-04-10T09:10:02.522Z,99996.24
2019-04-10T09:12:09.453Z,99989.86
2019-04-10T09:14:17.033Z,99987.11
2019-04-10T09:16:24.680Z,99985.34
2019-04-10T09:18:31.618Z,99988.42
2019-04-10T09:20:38.564Z,99984.70
2019-04-10T09:23:10.731Z,99989.88
2019-04-10T09:24:54.868Z,99981.62
2019-04-10T09:27:02.544Z,99985.84
2019-04-10T09:29:09.430Z,99989.05
2019-04-10T09:31:16.090Z,99991.25
2019-04-10T09:33:27.746Z,99984.48
2019-04-10T09:35:32.907Z,99984.60
2019-04-10T09:37:39.885Z,99975.56
2019-04-10T09:39:47.929Z,99982.03
2019-04-10T09:41:56.388Z,99976.36
2019-04-10T09:44:04.512Z,99981.91
2019-04-10T09:46:12.815Z,99971.84
2019-04-10T09:48:19.622Z,99971.30
2019-04-10T09:50:27.574Z,99972.05
2019-04-10T09:52:35.479Z,99972.44
2019-04-10T09:54:43.625Z,99972.33
2019-04-10T09:56:50.622Z,99966.09
2019-04-10T09:58:57.512Z,99963.92
2019-04-10T10:01:06.302Z,99961.25
2019-04-10T10:03:13.564Z,99962.97
2019-04-10T10:05:22.345Z,99963.89
2019-04-10T10:07:28.927Z,99955.59
2019-04-10T10:09:36.700Z,99958.59
2019-04-10T10:11:43.373Z,99958.80
2019-04-10T10:13:50.228Z,99957.50
2019-04-10T10:15:56.955Z,99955.41
2019-04-10T10:18:03.625Z,99959.05
2019-04-10T10:20:11.602Z,99961.80
2019-04-10T10:22:18.353Z,99956.75
2019-04-10T10:24:25.076Z,99954.30
2019-04-10T10:26:32.852Z,99959.21
2019-04-10T10:28:39.588Z,99955.73
2019-04-10T10:30:47.301Z,99953.09
2019-04-10T10:32:54.294Z,99952.95
2019-04-10T10:35:01.121Z,99953.92
2019-04-10T10:37:08.363Z,99953.38
2019-04-10T10:39:21.190Z,99951.38
2019-04-10T10:41:29.882Z,99955.52
2019-04-10T10:43:36.795Z,99958.33
2019-04-10T10:45:43.468Z,99959.86
2019-04-10T10:47:50.626Z,99962.84
2019-04-10T10:49:57.718Z,99960.33
2019-04-10T10:52:04.593Z,99951.61
2019-04-10T10:54:13.761Z,99965.91
2019-04-10T10:56:20.419Z,99955.00
2019-04-10T10:58:28.092Z,99956.13
2019-04-10T11:00:35.585Z,99962.43
2019-04-10T11:02:43.549Z,99959.70
2019-04-10T11:04:51.617Z,99954.02
2019-04-10T11:07:00.922Z,99949.26
2019-04-10T11:09:12.596Z,99951.16
2019-04-10T11:11:20.037Z,99954.03
2019-04-10T11:13:28.223Z,99963.16
2019-04-10T11:15:34.887Z,99960.88
2019-04-10T11:17:42.187Z,99959.54
2019-04-10T11:19:48.990Z,99956.71
2019-04-10T11:21:56.842Z,99952.70
2019-04-10T11:24:04.965Z,99955.74
2019-04-10T11:26:14.071Z,99947.41
2019-04-10T11:28:20.682Z,99954.94
2019-04-10T11:30:28.615Z,99949.55
2019-04-10T11:32:36.677Z,99951.12
2019-04-10T11:34:43.868Z,99944.57
2019-04-10T11:37:11.264Z,99943.47
2019-04-10T11:39:09.690Z,99945.70
2019-04-10T11:41:10.392Z,99950.11
2019-04-10T11:43:17.157Z,99942.66
2019-04-10T11:45:28.283Z,99946.58
2019-04-10T11:47:34.720Z,99945.12
2019-04-10T11:49:43.395Z,99947.25
2019-04-10T11:51:50.928Z,99945.02
2019-04-10T11:53:59.108Z,99945.59
2019-04-10T11:56:07.991Z,99936.02
2019-04-10T11:58:17.661Z,99932.09
2019-04-10T12:00:47.413Z,99926.50
2019-04-10T12:02:49.748Z,99934.91
2019-04-10T12:05:01.607Z,99929.66
2019-04-10T12:07:05.849Z,99930.95
2019-04-10T12:09:57.219Z,99922.84
2019-04-10T12:11:26.423Z,99925.42
2019-04-10T12:13:33.175Z,99924.97
2019-04-10T12:15:40.687Z,99928.25
2019-04-10T12:17:47.493Z,99923.77
2019-04-10T12:19:54.382Z,99919.30
2019-04-10T12:22:01.195Z,99921.61
2019-04-10T12:24:09.547Z,99918.48
2019-04-10T12:26:16.420Z,99918.08
2019-04-10T12:28:23.115Z,99917.18
2019-04-10T12:30:29.765Z,99917.16
2019-04-10T12:32:36.735Z,99910.98
2019-04-10T12:34:44.515Z,99914.58
2019-04-10T12:36:51.949Z,99911.03
2019-04-10T12:39:00.365Z,99914.20
2019-04-10T12:41:08.909Z,99919.03
2019-04-10T12:43:16.760Z,99915.46
2019-04-10T12:45:24.305Z,99908.36
2019-04-10T12:47:32.145Z,99906.59
2019-04-10T12:49:39.388Z,99898.77
2019-04-10T12:51:46.996Z,99902.23
2019-04-10T12:53:54.046Z,99902.31
2019-04-10T12:56:01.871Z,99898.39
2019-04-10T12:58:13.575Z,99891.91
2019-04-10T13:00:20.062Z,99897.18
2019-04-10T13:02:28.021Z,99894.51
2019-04-10T13:04:35.028Z,99900.56
2019-04-10T13:06:42.291Z,99891.34
2019-04-10T13:08:59.140Z,99894.42
2019-04-10T13:10:58.283Z,99887.46
2019-04-10T13:13:06.016Z,99893.69
2019-04-10T13:15:15.009Z,99897.65
2019-04-10T13:17:22.705Z,99895.25
2019-04-10T13:19:29.894Z,99894.83
2019-04-10T13:21:36.860Z,99885.55
2019-04-10T13:23:44.711Z,99882.09
2019-04-10T13:25:59.387Z,99890.33
2019-04-10T13:28:01.058Z,99887.19
2019-04-10T13:30:14.204Z,99887.64
2019-04-10T13:32:20.485Z,99890.36
2019-04-10T13:34:27.224Z,99897.96
2019-04-10T13:36:33.957Z,99893.60
2019-04-10T13:38:40.726Z,99888.75
2019-04-10T13:40:48.077Z,99898.90
2019-04-10T13:42:55.700Z,99892.69
2019-04-10T13:45:03.246Z,99889.20
2019-04-10T13:47:10.171Z,99892.85
2019-04-10T13:49:17.730Z,99895.81
2019-04-10T13:51:25.486Z,99891.92
2019-04-10T13:53:32.277Z,99901.55
2019-04-10T13:55:40.058Z,99898.06
2019-04-10T13:57:47.092Z,99895.86
2019-04-10T13:59:57.477Z,99899.81
2019-04-10T14:02:05.331Z,99898.81
2019-04-10T14:04:12.047Z,99897.61
2019-04-10T14:06:19.222Z,99898.58
2019-04-10T14:08:40.476Z,99906.02
2019-04-10T14:10:35.316Z,99899.42
2019-04-10T14:12:43.257Z,99896.70
2019-04-10T14:14:51.032Z,99901.90
2019-04-10T14:16:57.846Z,99903.31
2019-04-10T14:19:06.208Z,99901.12
2019-04-10T14:21:16.041Z,99896.73
2019-04-10T14:23:24.520Z,99892.34
2019-04-10T14:25:40.123Z,99894.05
2019-04-10T14:27:48.784Z,99896.31
2019-04-10T14:29:56.552Z,99893.30
2019-04-10T14:32:07.114Z,99891.53
2019-04-10T14:34:14.494Z,99889.70
2019-04-10T14:36:22.301Z,99881.22
2019-04-10T14:38:29.183Z,99897.36
2019-04-10T14:40:36.115Z,99893.34
2019-04-10T14:42:42.793Z,99896.05
2019-04-10T14:44:49.647Z,99898.15
2019-04-10T14:46:56.372Z,99896.23
2019-04-10T14:49:03.423Z,99891.92
2019-04-10T14:51:11.016Z,99894.90
2019-04-10T14:53:17.662Z,99903.63
2019-04-10T14:55:24.345Z,99888.45
2019-04-10T14:57:31.902Z,99902.80
2019-04-10T14:59:38.637Z,99903.64
2019-04-10T15:01:46.254Z,99902.27
2019-04-10T15:03:53.046Z,99906.55
2019-04-10T15:06:01.078Z,99911.44
2019-04-10T15:08:09.232Z,99901.83
2019-04-10T15:10:16.157Z,99906.77
2019-04-10T15:12:22.853Z,99905.57
2019-04-10T15:14:29.872Z,99918.74
2019-04-10T15:16:39.115Z,99919.02
2019-04-10T15:18:46.057Z,99921.49
2019-04-10T15:20:52.915Z,99918.69
2019-04-10T15:23:00.767Z,99920.83
2019-04-10T15:25:08.856Z,99925.89
2019-04-10T15:27:19.487Z,99920.94
2019-04-10T15:29:26.750Z,99919.27
2019-04-10T15:31:33.605Z,99923.19
2019-04-10T15:33:40.388Z,99923.56
2019-04-10T15:35:47.034Z,99917.47
2019-04-10T15:37:53.780Z,99918.78
2019-04-10T15:40:12.428Z,99916.32
2019-04-10T15:42:09.979Z,99919.30
2019-04-10T15:44:16.707Z,99929.34
2019-04-10T15:46:23.394Z,99921.26
2019-04-10T15:48:30.135Z,99922.98
2019-04-10T15:50:36.908Z,99925.06
2019-04-10T15:52:43.706Z,99931.01
2019-04-10T15:54:53.000Z,99920.40
2019-04-10T15:56:58.808Z,99927.03
2019-04-10T15:59:06.012Z,99928.20
2019-04-10T16:01:14.483Z,99927.23
2019-04-10T16:03:21.841Z,99932.30
2019-04-10T16:05:29.272Z,99926.95
2019-04-10T16:07:36.359Z,99943.05
2019-04-10T16:09:50.683Z,99932.07
2019-04-10T16:11:58.533Z,99932.83
2019-04-10T16:14:17.954Z,99937.53
2019-04-10T16:16:33.977Z,99941.96
2019-04-10T16:18:41.078Z,99945.38
2019-04-10T16:20:52.880Z,99938.78
2019-04-10T16:23:08.059Z,99949.08
2019-04-10T16:25:20.633Z,99952.84
2019-04-10T16:27:28.737Z,99949.37
2019-04-10T16:29:36.467Z,99957.92
2019-04-10T16:31:44.012Z,99965.63
2019-04-10T16:33:52.512Z,99963.70
2019-04-10T16:35:59.563Z,99974.94
2019-04-10T16:38:06.919Z,99973.94
2019-04-10T16:40:14.975Z,99975.95
2019-04-10T16:42:22.345Z,99973.66
2019-04-10T16:44:29.060Z,99979.53
2019-04-10T16:46:36.183Z,99980.56
2019-04-10T16:48:44.138Z,99979.50
2019-04-10T16:50:51.958Z,99979.72
2019-04-10T16:52:58.917Z,99981.33
2019-04-10T16:55:10.465Z,99981.17
2019-04-10T16:57:18.442Z,99982.43
2019-04-10T16:59:25.589Z,99978.37
2019-04-10T17:01:33.014Z,99977.35
2019-04-10T17:03:40.203Z,99982.92
2019-04-10T17:05:48.010Z,99972.31
2019-04-10T17:07:55.291Z,99976.16
2019-04-10T17:10:11.735Z,99975.64
2019-04-10T17:12:12.100Z,99978.17
2019-04-10T17:14:20.397Z,99980.70
2019-04-10T17:16:29.419Z,99982.31
2019-04-10T17:18:36.157Z,99985.77
2019-04-10T17:20:42.817Z,99985.63
2019-04-10T17:22:49.835Z,99993.82
2019-04-10T17:24:57.781Z,99998.49
2019-04-10T17:27:05.080Z,100000.55
2019-04-10T17:29:13.097Z,100009.26
2019-04-10T17:31:19.847Z,100017.02
2019-04-10T17:33:27.048Z,100018.23
2019-04-10T17:35:35.916Z,100029.17
2019-04-10T17:37:42.752Z,100032.17
2019-04-10T17:39:49.503Z,100042.55
2019-04-10T17:41:57.713Z,100034.32
2019-04-10T17:44:05.514Z,100047.37
2019-04-10T17:46:13.222Z,100045.40
2019-04-10T17:48:20.277Z,100047.86
2019-04-10T17:50:27.983Z,100054.73
2019-04-10T17:52:38.856Z,100061.18
2019-04-10T17:54:47.449Z,100055.41
2019-04-10T17:56:54.906Z,100065.36
2019-04-10T17:59:02.356Z,100067.41
2019-04-10T18:01:10.824Z,100074.26
2019-04-10T18:03:18.937Z,100073.22
2019-04-10T18:05:26.580Z,100075.73
2019-04-10T18:07:34.307Z,100071.23
2019-04-10T18:09:41.223Z,100083.36
2019-04-10T18:11:47.907Z,100086.30
2019-04-10T18:13:55.236Z,100091.00
2019-04-10T18:16:02.429Z,100096.61
2019-04-10T18:18:09.366Z,100100.46
2019-04-10T18:20:16.126Z,100101.24
2019-04-10T18:22:22.857Z,100099.47
2019-04-10T18:24:30.486Z,100100.20
2019-04-10T18:26:39.520Z,100101.80
2019-04-10T18:28:46.275Z,100106.87
2019-04-10T18:30:53.030Z,100108.02
2019-04-10T18:33:00.242Z,100109.21
2019-04-10T18:35:08.900Z,100110.86
2019-04-10T18:37:20.655Z,100104.63
2019-04-10T18:39:26.706Z,100106.30
2019-04-10T18:41:33.445Z,100114.56
2019-04-10T18:43:40.887Z,100114.03
2019-04-10T18:45:58.417Z,100117.88
2019-04-10T18:47:56.475Z,100116.77
2019-04-10T18:50:04.459Z,100117.02
2019-04-10T18:52:12.943Z,100113.44
2019-04-10T18:54:20.771Z,100120.75
2019-04-10T18:56:29.230Z,100121.94
2019-04-10T18:58:40.068Z,100114.40
2019-04-10T19:01:05.490Z,100110.40
2019-04-10T19:03:45.399Z,100112.59
2019-04-10T19:05:45.769Z,100109.87
2019-04-10T19:07:56.668Z,100108.20
2019-04-10T19:10:06.666Z,100104.70
2019-04-10T19:12:17.535Z,100101.91
2019-04-10T19:14:25.513Z,100108.66
2019-04-10T19:16:33.553Z,100115.91
2019-04-10T19:18:40.531Z,100118.30
2019-04-10T19:20:51.530Z,100121.27
2019-04-10T19:23:01.359Z,100125.58
2019-04-10T19:25:14.495Z,100120.23
2019-04-10T19:27:25.529Z,100119.70
2019-04-10T19:29:38.186Z,100119.58
2019-04-10T19:31:54.030Z,100123.08
2019-04-10T19:34:03.130Z,100124.33
2019-04-10T19:36:12.784Z,100121.57
2019-04-10T19:38:25.298Z,100125.02
2019-04-10T19:40:36.921Z,100125.73
2019-04-10T19:42:44.422Z,100120.44
2019-04-10T19:44:51.128Z,100124.66
2019-04-10T19:46:59.064Z,100126.77
2019-04-10T19:49:08.218Z,100128.84
2019-04-10T19:51:16.305Z,100125.39
2019-04-10T19:53:27.015Z,100129.73
2019-04-10T19:55:35.927Z,100120.94
2019-04-10T19:57:47.736Z,100123.02
2019-04-10T19:59:56.144Z,100132.52
2019-04-10T20:02:03.953Z,100141.17
2019-04-10T20:04:12.514Z,100139.36
2019-04-10T20:06:21.356Z,100141.31
2019-04-10T20:08:28.849Z,100144.69
2019-04-10T20:10:37.396Z,100141.48
2019-04-10T20:12:44.702Z,100140.49
2019-04-10T20:14:53.330Z,100147.44
2019-04-10T20:17:00.286Z,100141.33
2019-04-10T20:19:09.600Z,100140.44
2019-04-10T20:21:17.968Z,100139.89
2019-04-10T20:23:24.704Z,100143.69
2019-04-10T20:25:32.506Z,100145.81
2019-04-10T20:27:40.592Z,100145.75
2019-04-10T20:29:47.689Z,100151.39
2019-04-10T20:31:57.410Z,100149.64
2019-04-10T20:34:05.409Z,100150.88
2019-04-10T20:36:15.151Z,100159.66
2019-04-10T20:38:25.120Z,100151.03
2019-04-10T20:40:31.917Z,100156.73
2019-04-10T20:42:42.693Z,100160.30
2019-04-10T20:44:49.600Z,100159.19
2019-04-10T20:46:56.353Z,100158.01
2019-04-10T20:49:08.406Z,100159.88
2019-04-10T20:51:18.687Z,100158.77
2019-04-10T20:53:26.229Z,100168.02
2019-04-10T20:55:35.624Z,100171.94
2019-04-10T20:57:41.626Z,100162.86
2019-04-10T20:59:48.870Z,100162.86
2019-04-10T21:01:55.898Z,100168.59
2019-04-10T21:04:03.130Z,100170.79
2019-04-10T21:06:11.274Z,100180.95
2019-04-10T21:08:18.308Z,100178.88
2019-04-10T21:10:25.527Z,100179.83
2019-04-10T21:12:32.641Z,100186.00
2019-04-10T21:14:40.359Z,100188.64
2019-04-10T21:16:47.653Z,100184.31
2019-04-10T21:18:56.646Z,100196.60
2019-04-10T21:21:03.797Z,100193.16
2019-04-10T21:23:11.014Z,100193.64
2019-04-10T21:25:18.993Z,100186.70
2019-04-10T21:27:25.977Z,100189.02
2019-04-10T21:29:46.548Z,100194.80
2019-04-10T21:32:13.052Z,100184.36
2019-04-10T21:34:32.533Z,100187.38
2019-04-10T21:36:39.484Z,100190.47
2019-04-10T21:38:48.151Z,100188.27
2019-04-10T21:40:55.280Z,100190.44
2019-04-10T21:43:02.059Z,100187.38
2019-04-10T21:45:09.527Z,100189.16
2019-04-10T21:47:17.280Z,100178.72
2019-04-10T21:49:24.082Z,100191.42
2019-04-10T21:51:30.739Z,100189.29
2019-04-10T21:53:38.772Z,100185.91
2019-04-10T21:55:45.898Z,100188.16
2019-04-10T21:57:52.743Z,100181.86
2019-04-10T22:00:00.060Z,100188.39
2019-04-10T22:02:07.518Z,100184.06
2019-04-10T22:04:14.723Z,100180.56
2019-04-10T22:06:24.458Z,100186.14
2019-04-10T22:08:48.115Z,100187.86
2019-04-10T22:10:55.303Z,100193.08
2019-04-10T22:13:06.001Z,100192.67
2019-04-10T22:15:33.134Z,100200.57
2019-04-10T22:17:40.894Z,100197.95
2019-04-10T22:19:50.676Z,100200.03
2019-04-10T22:21:59.333Z,100203.95
2019-04-10T22:24:07.350Z,100210.61
2019-04-10T22:26:15.783Z,100204.61
2019-04-10T22:28:23.713Z,100206.75
2019-04-10T22:30:31.450Z,100209.30
2019-04-10T22:32:38.789Z,100206.21
2019-04-10T22:34:46.419Z,100205.73
2019-04-10T22:36:53.885Z,100200.92
2019-04-10T22:39:00.708Z,100200.45
2019-04-10T22:41:21.731Z,100200.89
2019-04-10T22:43:18.303Z,100194.39
2019-04-10T22:45:30.890Z,100198.84
2019-04-10T22:47:39.247Z,100201.52
2019-04-10T22:49:47.186Z,100197.42
2019-04-10T22:51:54.240Z,100194.72
2019-04-10T22:54:01.891Z,100195.42
2019-04-10T22:56:10.697Z,100193.23
2019-04-10T22:58:19.056Z,100192.33
2019-04-10T23:00:30.659Z,100191.03
2019-04-10T23:02:39.783Z,100193.04
2019-04-10T23:04:47.130Z,100188.49
2019-04-10T23:06:55.650Z,100195.50
2019-04-10T23:09:04.122Z,100193.36
2019-04-10T23:11:13.161Z,100190.69
2019-04-10T23:13:20.058Z,100191.39
2019-04-10T23:17:52.807Z,100183.78
2019-04-10T23:20:00.723Z,100184.52
2019-04-10T23:22:09.201Z,100192.00
2019-04-10T23:24:16.935Z,100179.17
2019-04-10T23:26:24.832Z,100183.70
2019-04-10T23:28:31.802Z,100182.39
2019-04-10T23:30:39.201Z,100184.05
2019-04-10T23:32:47.861Z,100187.96
2019-04-10T23:34:56.949Z,100184.45
2019-04-10T23:37:05.056Z,100187.96
2019-04-10T23:39:12.278Z,100192.36
2019-04-10T23:41:19.289Z,100186.30
2019-04-10T23:43:27.275Z,100191.11
2019-04-10T23:45:34.164Z,100198.62
2019-04-10T23:47:40.835Z,100188.53
2019-04-10T23:49:47.911Z,100197.80
2019-04-10T23:51:55.740Z,100194.00
2019-04-10T23:54:02.870Z,100194.42
2019-04-10T23:56:09.888Z,100191.04
2019-04-10T23:58:18.124Z,100184.93
